sensor_id;sensor_type;location;lat;lon;timestamp;temperature;humidity
27667;DHT22;15074;50.940;5.282;2023-04-25T00:01:11;9.20;99.90
27667;DHT22;15074;50.940;5.282;2023-04-25T00:03:39;9.20;99.90
27667;DHT22;15074;50.940;5.282;2023-04-25T00:06:05;9.20;99.90
27667;DHT22;15074;50.940;5.282;2023-04-25T00:08:32;9.20;99.90
27667;DHT22;15074;50.940;5.282;2023-04-25T00:10:58;9.20;99.90
27667;DHT22;15074;50.940;5.282;2023-04-25T00:13:25;9.20;99.90
27667;DHT22;15074;50.940;5.282;2023-04-25T00:15:51;9.10;99.90
27667;DHT22;15074;50.940;5.282;2023-04-25T00:18:21;9.00;99.90
27667;DHT22;15074;50.940;5.282;2023-04-25T00:20:47;9.00;99.90
27667;DHT22;15074;50.940;5.282;2023-04-25T00:23:16;9.10;99.90
27667;DHT22;15074;50.940;5.282;2023-04-25T00:25:45;9.10;99.90
27667;DHT22;15074;50.940;5.282;2023-04-25T00:28:12;9.20;99.90
27667;DHT22;15074;50.940;5.282;2023-04-25T00:30:38;9.20;99.90
27667;DHT22;15074;50.940;5.282;2023-04-25T00:33:04;9.30;99.90
27667;DHT22;15074;50.940;5.282;2023-04-25T00:35:30;9.20;99.90
27667;DHT22;15074;50.940;5.282;2023-04-25T00:37:55;9.10;99.90
27667;DHT22;15074;50.940;5.282;2023-04-25T00:40:21;9.00;99.90
27667;DHT22;15074;50.940;5.282;2023-04-25T00:42:47;9.10;99.90
27667;DHT22;15074;50.940;5.282;2023-04-25T00:45:14;9.00;99.90
27667;DHT22;15074;50.940;5.282;2023-04-25T00:47:41;8.90;99.90
27667;DHT22;15074;50.940;5.282;2023-04-25T00:50:08;8.80;99.90
27667;DHT22;15074;50.940;5.282;2023-04-25T00:52:34;8.90;99.90
27667;DHT22;15074;50.940;5.282;2023-04-25T00:55:00;8.80;99.90
27667;DHT22;15074;50.940;5.282;2023-04-25T00:57:26;8.90;99.90
27667;DHT22;15074;50.940;5.282;2023-04-25T00:59:53;8.90;99.90
27667;DHT22;15074;50.940;5.282;2023-04-25T01:02:20;8.80;99.90
27667;DHT22;15074;50.940;5.282;2023-04-25T01:04:47;8.80;99.90
27667;DHT22;15074;50.940;5.282;2023-04-25T01:07:13;8.80;99.90
27667;DHT22;15074;50.940;5.282;2023-04-25T01:09:39;8.90;99.90
27667;DHT22;15074;50.940;5.282;2023-04-25T01:12:05;8.90;99.90
27667;DHT22;15074;50.940;5.282;2023-04-25T01:14:31;8.80;99.90
27667;DHT22;15074;50.940;5.282;2023-04-25T01:16:56;8.80;99.90
27667;DHT22;15074;50.940;5.282;2023-04-25T01:19:23;8.90;99.90
27667;DHT22;15074;50.940;5.282;2023-04-25T01:21:50;8.70;99.90
27667;DHT22;15074;50.940;5.282;2023-04-25T01:24:16;8.70;99.90
27667;DHT22;15074;50.940;5.282;2023-04-25T01:26:42;8.80;99.90
27667;DHT22;15074;50.940;5.282;2023-04-25T01:29:19;8.80;99.90
27667;DHT22;15074;50.940;5.282;2023-04-25T01:31:46;8.80;99.90
27667;DHT22;15074;50.940;5.282;2023-04-25T01:34:12;8.80;99.90
27667;DHT22;15074;50.940;5.282;2023-04-25T01:36:38;8.80;99.90
27667;DHT22;15074;50.940;5.282;2023-04-25T01:39:04;8.70;99.90
27667;DHT22;15074;50.940;5.282;2023-04-25T01:41:31;8.70;99.90
27667;DHT22;15074;50.940;5.282;2023-04-25T01:43:57;8.70;99.90
27667;DHT22;15074;50.940;5.282;2023-04-25T01:46:23;8.70;99.90
27667;DHT22;15074;50.940;5.282;2023-04-25T01:48:48;8.70;99.90
27667;DHT22;15074;50.940;5.282;2023-04-25T01:51:14;8.70;99.90
27667;DHT22;15074;50.940;5.282;2023-04-25T01:53:40;8.80;99.90
27667;DHT22;15074;50.940;5.282;2023-04-25T01:56:06;8.80;99.90
27667;DHT22;15074;50.940;5.282;2023-04-25T01:58:32;8.80;99.90
27667;DHT22;15074;50.940;5.282;2023-04-25T02:00:58;8.80;99.90
27667;DHT22;15074;50.940;5.282;2023-04-25T02:03:23;8.80;99.90
27667;DHT22;15074;50.940;5.282;2023-04-25T02:05:49;8.90;99.90
27667;DHT22;15074;50.940;5.282;2023-04-25T02:08:17;8.90;99.90
27667;DHT22;15074;50.940;5.282;2023-04-25T02:10:43;8.90;99.90
27667;DHT22;15074;50.940;5.282;2023-04-25T02:13:08;8.90;99.90
27667;DHT22;15074;50.940;5.282;2023-04-25T02:15:34;8.80;99.90
27667;DHT22;15074;50.940;5.282;2023-04-25T02:18:00;8.80;99.90
27667;DHT22;15074;50.940;5.282;2023-04-25T02:20:28;8.70;99.90
27667;DHT22;15074;50.940;5.282;2023-04-25T02:22:54;8.60;99.90
27667;DHT22;15074;50.940;5.282;2023-04-25T02:25:20;8.50;99.90
27667;DHT22;15074;50.940;5.282;2023-04-25T02:27:47;8.60;99.90
27667;DHT22;15074;50.940;5.282;2023-04-25T02:30:13;8.60;99.90
27667;DHT22;15074;50.940;5.282;2023-04-25T02:32:39;8.50;99.90
27667;DHT22;15074;50.940;5.282;2023-04-25T02:35:05;8.50;99.90
27667;DHT22;15074;50.940;5.282;2023-04-25T02:37:33;8.60;99.90
27667;DHT22;15074;50.940;5.282;2023-04-25T02:39:59;8.60;99.90
27667;DHT22;15074;50.940;5.282;2023-04-25T02:42:24;8.60;99.90
27667;DHT22;15074;50.940;5.282;2023-04-25T02:44:50;8.60;99.90
27667;DHT22;15074;50.940;5.282;2023-04-25T02:47:16;8.60;99.90
27667;DHT22;15074;50.940;5.282;2023-04-25T02:49:41;8.60;99.90
27667;DHT22;15074;50.940;5.282;2023-04-25T02:52:07;8.60;99.90
27667;DHT22;15074;50.940;5.282;2023-04-25T02:54:33;8.60;99.90
27667;DHT22;15074;50.940;5.282;2023-04-25T02:56:58;8.50;99.90
27667;DHT22;15074;50.940;5.282;2023-04-25T02:59:24;8.50;99.90
27667;DHT22;15074;50.940;5.282;2023-04-25T03:01:49;8.50;99.90
27667;DHT22;15074;50.940;5.282;2023-04-25T03:04:15;8.60;99.90
27667;DHT22;15074;50.940;5.282;2023-04-25T03:06:41;8.60;99.90
27667;DHT22;15074;50.940;5.282;2023-04-25T03:09:06;8.60;99.90
27667;DHT22;15074;50.940;5.282;2023-04-25T03:11:32;8.60;99.90
27667;DHT22;15074;50.940;5.282;2023-04-25T03:13:58;8.70;99.90
27667;DHT22;15074;50.940;5.282;2023-04-25T03:16:24;8.70;99.90
27667;DHT22;15074;50.940;5.282;2023-04-25T03:18:49;8.60;99.90
27667;DHT22;15074;50.940;5.282;2023-04-25T03:21:16;8.60;99.90
27667;DHT22;15074;50.940;5.282;2023-04-25T03:23:42;8.60;99.90
27667;DHT22;15074;50.940;5.282;2023-04-25T03:26:07;8.70;99.90
27667;DHT22;15074;50.940;5.282;2023-04-25T03:28:33;8.60;99.90
27667;DHT22;15074;50.940;5.282;2023-04-25T03:30:59;8.70;99.90
27667;DHT22;15074;50.940;5.282;2023-04-25T03:33:24;8.60;99.90
27667;DHT22;15074;50.940;5.282;2023-04-25T03:35:51;8.60;99.90
27667;DHT22;15074;50.940;5.282;2023-04-25T03:38:17;8.70;99.90
27667;DHT22;15074;50.940;5.282;2023-04-25T04:09:11;8.00;99.90
27667;DHT22;15074;50.940;5.282;2023-04-25T04:11:40;7.70;99.90
27667;DHT22;15074;50.940;5.282;2023-04-25T04:14:06;7.50;99.90
27667;DHT22;15074;50.940;5.282;2023-04-25T04:43:17;7.70;99.90
27667;DHT22;15074;50.940;5.282;2023-04-25T04:45:44;7.80;99.90
27667;DHT22;15074;50.940;5.282;2023-04-25T04:48:09;7.90;99.90
27667;DHT22;15074;50.940;5.282;2023-04-25T04:50:37;7.80;99.90
27667;DHT22;15074;50.940;5.282;2023-04-25T04:53:04;7.70;99.90
27667;DHT22;15074;50.940;5.282;2023-04-25T04:55:30;7.80;99.90
27667;DHT22;15074;50.940;5.282;2023-04-25T04:57:55;7.90;99.90
27667;DHT22;15074;50.940;5.282;2023-04-25T05:00:21;8.00;99.90
27667;DHT22;15074;50.940;5.282;2023-04-25T05:02:47;8.10;99.90
27667;DHT22;15074;50.940;5.282;2023-04-25T05:05:13;7.90;99.90
27667;DHT22;15074;50.940;5.282;2023-04-25T05:07:38;8.00;99.90
27667;DHT22;15074;50.940;5.282;2023-04-25T05:10:04;8.10;99.90
27667;DHT22;15074;50.940;5.282;2023-04-25T05:12:30;8.20;99.90
27667;DHT22;15074;50.940;5.282;2023-04-25T05:14:56;8.20;99.90
27667;DHT22;15074;50.940;5.282;2023-04-25T05:17:22;8.20;99.90
27667;DHT22;15074;50.940;5.282;2023-04-25T05:19:47;8.20;99.90
27667;DHT22;15074;50.940;5.282;2023-04-25T05:22:13;8.30;99.90
27667;DHT22;15074;50.940;5.282;2023-04-25T05:24:39;8.40;99.90
27667;DHT22;15074;50.940;5.282;2023-04-25T05:27:04;8.60;99.90
27667;DHT22;15074;50.940;5.282;2023-04-25T05:29:31;8.70;99.90
27667;DHT22;15074;50.940;5.282;2023-04-25T05:31:57;8.80;99.90
27667;DHT22;15074;50.940;5.282;2023-04-25T05:34:22;8.90;99.90
27667;DHT22;15074;50.940;5.282;2023-04-25T05:36:48;8.80;99.90
27667;DHT22;15074;50.940;5.282;2023-04-25T05:39:17;8.90;99.90
27667;DHT22;15074;50.940;5.282;2023-04-25T05:41:43;8.80;99.90
27667;DHT22;15074;50.940;5.282;2023-04-25T05:44:09;8.70;99.90
27667;DHT22;15074;50.940;5.282;2023-04-25T05:46:35;8.60;99.90
27667;DHT22;15074;50.940;5.282;2023-04-25T05:49:00;8.60;99.90
27667;DHT22;15074;50.940;5.282;2023-04-25T05:51:26;8.60;99.90
27667;DHT22;15074;50.940;5.282;2023-04-25T05:53:53;8.70;99.90
27667;DHT22;15074;50.940;5.282;2023-04-25T05:56:18;8.90;99.90
27667;DHT22;15074;50.940;5.282;2023-04-25T05:58:44;8.90;99.90
27667;DHT22;15074;50.940;5.282;2023-04-25T06:01:10;9.00;99.90
27667;DHT22;15074;50.940;5.282;2023-04-25T06:03:35;9.20;99.90
27667;DHT22;15074;50.940;5.282;2023-04-25T06:06:03;9.20;99.90
27667;DHT22;15074;50.940;5.282;2023-04-25T06:08:29;9.30;99.90
27667;DHT22;15074;50.940;5.282;2023-04-25T06:10:55;9.30;99.90
27667;DHT22;15074;50.940;5.282;2023-04-25T06:13:20;9.10;99.90
27667;DHT22;15074;50.940;5.282;2023-04-25T06:15:46;9.10;99.90
27667;DHT22;15074;50.940;5.282;2023-04-25T06:18:12;9.00;99.90
27667;DHT22;15074;50.940;5.282;2023-04-25T06:20:37;9.10;99.90
27667;DHT22;15074;50.940;5.282;2023-04-25T06:23:03;9.10;99.90
27667;DHT22;15074;50.940;5.282;2023-04-25T06:25:28;9.20;99.90
27667;DHT22;15074;50.940;5.282;2023-04-25T06:27:54;9.30;99.90
27667;DHT22;15074;50.940;5.282;2023-04-25T06:30:20;9.40;99.90
27667;DHT22;15074;50.940;5.282;2023-04-25T06:32:49;9.40;99.90
27667;DHT22;15074;50.940;5.282;2023-04-25T06:35:14;9.50;99.90
27667;DHT22;15074;50.940;5.282;2023-04-25T06:37:40;9.50;99.90
27667;DHT22;15074;50.940;5.282;2023-04-25T06:40:06;9.60;99.90
27667;DHT22;15074;50.940;5.282;2023-04-25T06:42:32;9.60;99.90
27667;DHT22;15074;50.940;5.282;2023-04-25T06:44:57;9.70;99.90
27667;DHT22;15074;50.940;5.282;2023-04-25T06:47:23;9.60;99.90
27667;DHT22;15074;50.940;5.282;2023-04-25T06:49:49;9.50;99.90
27667;DHT22;15074;50.940;5.282;2023-04-25T06:52:15;9.50;99.90
27667;DHT22;15074;50.940;5.282;2023-04-25T06:54:43;9.50;99.90
27667;DHT22;15074;50.940;5.282;2023-04-25T07:07:31;9.90;99.90
27667;DHT22;15074;50.940;5.282;2023-04-25T07:09:57;10.00;99.90
27667;DHT22;15074;50.940;5.282;2023-04-25T09:41:59;19.20;96.30
27667;DHT22;15074;50.940;5.282;2023-04-25T09:44:25;20.90;94.10
27667;DHT22;15074;50.940;5.282;2023-04-25T09:46:50;22.60;90.30
27667;DHT22;15074;50.940;5.282;2023-04-25T09:49:22;22.60;85.10
27667;DHT22;15074;50.940;5.282;2023-04-25T09:51:58;23.10;85.50
27667;DHT22;15074;50.940;5.282;2023-04-25T09:54:25;22.80;83.10
27667;DHT22;15074;50.940;5.282;2023-04-25T09:56:53;22.80;82.80
27667;DHT22;15074;50.940;5.282;2023-04-25T09:59:22;21.80;80.60
27667;DHT22;15074;50.940;5.282;2023-04-25T10:01:49;21.10;80.10
27667;DHT22;15074;50.940;5.282;2023-04-25T10:04:19;20.10;78.90
27667;DHT22;15074;50.940;5.282;2023-04-25T10:06:49;21.10;75.20
27667;DHT22;15074;50.940;5.282;2023-04-25T10:09:16;22.70;73.40
27667;DHT22;15074;50.940;5.282;2023-04-25T10:11:46;23.40;72.40
27667;DHT22;15074;50.940;5.282;2023-04-25T10:14:13;22.30;70.60
27667;DHT22;15074;50.940;5.282;2023-04-25T10:16:40;20.70;74.90
27667;DHT22;15074;50.940;5.282;2023-04-25T10:19:07;19.10;79.20
27667;DHT22;15074;50.940;5.282;2023-04-25T10:21:34;17.50;81.70
27667;DHT22;15074;50.940;5.282;2023-04-25T10:24:00;16.50;87.40
27667;DHT22;15074;50.940;5.282;2023-04-25T10:26:26;15.30;92.30
27667;DHT22;15074;50.940;5.282;2023-04-25T10:29:02;14.30;96.20
27667;DHT22;15074;50.940;5.282;2023-04-25T10:31:29;13.80;99.50
27667;DHT22;15074;50.940;5.282;2023-04-25T10:33:56;13.20;99.90
27667;DHT22;15074;50.940;5.282;2023-04-25T10:36:23;12.60;99.90
27667;DHT22;15074;50.940;5.282;2023-04-25T10:38:51;12.50;99.90
27667;DHT22;15074;50.940;5.282;2023-04-25T10:41:19;12.50;99.90
27667;DHT22;15074;50.940;5.282;2023-04-25T10:43:46;13.20;99.50
27667;DHT22;15074;50.940;5.282;2023-04-25T10:48:49;17.10;91.70
27667;DHT22;15074;50.940;5.282;2023-04-25T10:51:19;18.60;89.50
27667;DHT22;15074;50.940;5.282;2023-04-25T10:54:07;19.40;89.10
27667;DHT22;15074;50.940;5.282;2023-04-25T10:56:39;20.10;85.70
27667;DHT22;15074;50.940;5.282;2023-04-25T11:01:43;19.50;79.30
27667;DHT22;15074;50.940;5.282;2023-04-25T11:04:26;18.50;80.30
27667;DHT22;15074;50.940;5.282;2023-04-25T11:09:28;18.80;81.20
27667;DHT22;15074;50.940;5.282;2023-04-25T11:11:58;20.10;76.20
27667;DHT22;15074;50.940;5.282;2023-04-25T11:14:25;20.80;73.20
27667;DHT22;15074;50.940;5.282;2023-04-25T11:16:55;21.40;72.10
27667;DHT22;15074;50.940;5.282;2023-04-25T11:19:22;21.80;71.20
27667;DHT22;15074;50.940;5.282;2023-04-25T11:21:48;21.30;73.10
27667;DHT22;15074;50.940;5.282;2023-04-25T11:24:13;22.40;73.10
27667;DHT22;15074;50.940;5.282;2023-04-25T11:26:42;21.80;70.50
27667;DHT22;15074;50.940;5.282;2023-04-25T11:29:08;21.90;71.20
27667;DHT22;15074;50.940;5.282;2023-04-25T11:31:34;21.40;68.30
27667;DHT22;15074;50.940;5.282;2023-04-25T11:33:59;21.30;71.10
27667;DHT22;15074;50.940;5.282;2023-04-25T11:36:25;21.00;71.20
27667;DHT22;15074;50.940;5.282;2023-04-25T11:38:53;20.40;70.80
27667;DHT22;15074;50.940;5.282;2023-04-25T11:41:19;19.50;72.20
27667;DHT22;15074;50.940;5.282;2023-04-25T11:43:45;19.00;72.40
27667;DHT22;15074;50.940;5.282;2023-04-25T11:46:11;18.30;75.10
27667;DHT22;15074;50.940;5.282;2023-04-25T11:48:41;18.30;77.20
27667;DHT22;15074;50.940;5.282;2023-04-25T11:51:06;19.50;71.00
27667;DHT22;15074;50.940;5.282;2023-04-25T11:53:32;20.30;71.00
27667;DHT22;15074;50.940;5.282;2023-04-25T11:55:58;20.60;69.50
27667;DHT22;15074;50.940;5.282;2023-04-25T11:58:25;20.80;69.40
27667;DHT22;15074;50.940;5.282;2023-04-25T12:00:50;20.50;69.50
27667;DHT22;15074;50.940;5.282;2023-04-25T12:03:17;19.90;72.00
27667;DHT22;15074;50.940;5.282;2023-04-25T12:05:45;20.80;71.40
27667;DHT22;15074;50.940;5.282;2023-04-25T12:08:12;19.70;71.40
27667;DHT22;15074;50.940;5.282;2023-04-25T12:10:39;19.50;72.90
27667;DHT22;15074;50.940;5.282;2023-04-25T12:13:38;18.70;72.30
27667;DHT22;15074;50.940;5.282;2023-04-25T12:16:04;17.70;74.70
27667;DHT22;15074;50.940;5.282;2023-04-25T12:18:29;17.20;78.10
27667;DHT22;15074;50.940;5.282;2023-04-25T12:20:55;16.20;84.10
27667;DHT22;15074;50.940;5.282;2023-04-25T12:23:28;15.20;90.30
27667;DHT22;15074;50.940;5.282;2023-04-25T12:25:54;13.90;93.70
27667;DHT22;15074;50.940;5.282;2023-04-25T12:28:24;13.00;96.50
27667;DHT22;15074;50.940;5.282;2023-04-25T12:33:35;12.50;99.20
27667;DHT22;15074;50.940;5.282;2023-04-25T12:36:02;12.40;99.90
27667;DHT22;15074;50.940;5.282;2023-04-25T12:38:38;12.20;99.90
27667;DHT22;15074;50.940;5.282;2023-04-25T12:41:04;11.90;99.90
27667;DHT22;15074;50.940;5.282;2023-04-25T12:43:30;12.00;99.90
27667;DHT22;15074;50.940;5.282;2023-04-25T12:45:56;12.20;99.90
27667;DHT22;15074;50.940;5.282;2023-04-25T12:48:22;12.60;99.90
27667;DHT22;15074;50.940;5.282;2023-04-25T12:50:49;13.00;99.90
27667;DHT22;15074;50.940;5.282;2023-04-25T12:53:19;13.60;99.50
27667;DHT22;15074;50.940;5.282;2023-04-25T12:55:46;14.50;97.80
27667;DHT22;15074;50.940;5.282;2023-04-25T12:58:15;15.30;96.20
27667;DHT22;15074;50.940;5.282;2023-04-25T13:00:41;16.90;93.50
27667;DHT22;15074;50.940;5.282;2023-04-25T13:03:08;18.10;89.10
27667;DHT22;15074;50.940;5.282;2023-04-25T13:05:34;18.90;84.20
27667;DHT22;15074;50.940;5.282;2023-04-25T13:08:00;18.90;81.50
27667;DHT22;15074;50.940;5.282;2023-04-25T13:10:26;18.80;81.90
27667;DHT22;15074;50.940;5.282;2023-04-25T13:12:52;18.80;82.70
27667;DHT22;15074;50.940;5.282;2023-04-25T13:15:18;18.00;82.90
27667;DHT22;15074;50.940;5.282;2023-04-25T13:17:43;16.70;87.60
27667;DHT22;15074;50.940;5.282;2023-04-25T13:20:09;16.10;90.40
27667;DHT22;15074;50.940;5.282;2023-04-25T13:22:37;15.80;91.20
27667;DHT22;15074;50.940;5.282;2023-04-25T13:25:03;15.50;91.90
27667;DHT22;15074;50.940;5.282;2023-04-25T13:27:29;14.70;94.40
27667;DHT22;15074;50.940;5.282;2023-04-25T13:29:55;14.30;96.70
27667;DHT22;15074;50.940;5.282;2023-04-25T13:32:21;14.40;96.50
27667;DHT22;15074;50.940;5.282;2023-04-25T13:34:47;13.80;96.60
27667;DHT22;15074;50.940;5.282;2023-04-25T13:37:13;13.90;97.00
27667;DHT22;15074;50.940;5.282;2023-04-25T13:39:38;14.10;96.10
27667;DHT22;15074;50.940;5.282;2023-04-25T13:42:04;14.50;95.80
27667;DHT22;15074;50.940;5.282;2023-04-25T13:44:30;15.30;94.00
27667;DHT22;15074;50.940;5.282;2023-04-25T13:46:55;15.70;91.90
27667;DHT22;15074;50.940;5.282;2023-04-25T13:49:21;16.60;90.00
27667;DHT22;15074;50.940;5.282;2023-04-25T13:51:48;17.10;86.70
27667;DHT22;15074;50.940;5.282;2023-04-25T13:54:13;17.50;86.30
27667;DHT22;15074;50.940;5.282;2023-04-25T13:56:39;18.40;84.40
27667;DHT22;15074;50.940;5.282;2023-04-25T13:59:07;18.50;83.50
27667;DHT22;15074;50.940;5.282;2023-04-25T14:01:33;18.40;84.10
27667;DHT22;15074;50.940;5.282;2023-04-25T14:04:01;18.60;82.80
27667;DHT22;15074;50.940;5.282;2023-04-25T14:06:27;18.30;81.00
27667;DHT22;15074;50.940;5.282;2023-04-25T14:08:53;17.30;84.10
27667;DHT22;15074;50.940;5.282;2023-04-25T14:11:19;16.80;83.50
27667;DHT22;15074;50.940;5.282;2023-04-25T14:13:45;16.60;82.40
27667;DHT22;15074;50.940;5.282;2023-04-25T14:16:11;16.80;82.80
27667;DHT22;15074;50.940;5.282;2023-04-25T14:18:37;17.70;79.50
27667;DHT22;15074;50.940;5.282;2023-04-25T14:21:03;18.60;78.60
27667;DHT22;15074;50.940;5.282;2023-04-25T14:23:28;18.50;77.80
27667;DHT22;15074;50.940;5.282;2023-04-25T14:25:54;19.30;73.50
27667;DHT22;15074;50.940;5.282;2023-04-25T14:28:20;19.60;72.90
27667;DHT22;15074;50.940;5.282;2023-04-25T14:30:46;19.00;74.30
27667;DHT22;15074;50.940;5.282;2023-04-25T14:33:11;18.30;74.20
27667;DHT22;15074;50.940;5.282;2023-04-25T14:35:39;17.40;77.60
27667;DHT22;15074;50.940;5.282;2023-04-25T14:38:07;17.10;78.30
27667;DHT22;15074;50.940;5.282;2023-04-25T14:40:33;15.80;82.30
27667;DHT22;15074;50.940;5.282;2023-04-25T14:42:59;15.20;85.70
27667;DHT22;15074;50.940;5.282;2023-04-25T14:45:25;14.80;88.80
27667;DHT22;15074;50.940;5.282;2023-04-25T14:47:51;14.60;90.30
27667;DHT22;15074;50.940;5.282;2023-04-25T14:50:17;14.70;89.70
27667;DHT22;15074;50.940;5.282;2023-04-25T14:52:42;14.60;89.00
27667;DHT22;15074;50.940;5.282;2023-04-25T14:55:09;14.70;88.30
27667;DHT22;15074;50.940;5.282;2023-04-25T14:57:35;14.70;88.90
27667;DHT22;15074;50.940;5.282;2023-04-25T15:00:01;14.90;90.10
27667;DHT22;15074;50.940;5.282;2023-04-25T15:02:28;14.50;89.40
27667;DHT22;15074;50.940;5.282;2023-04-25T15:04:54;14.40;89.90
27667;DHT22;15074;50.940;5.282;2023-04-25T15:07:21;13.90;90.30
27667;DHT22;15074;50.940;5.282;2023-04-25T15:09:47;13.80;91.10
27667;DHT22;15074;50.940;5.282;2023-04-25T15:12:14;13.80;91.90
27667;DHT22;15074;50.940;5.282;2023-04-25T15:14:40;14.10;91.50
27667;DHT22;15074;50.940;5.282;2023-04-25T15:17:05;14.10;91.70
27667;DHT22;15074;50.940;5.282;2023-04-25T15:19:31;14.00;92.10
27667;DHT22;15074;50.940;5.282;2023-04-25T15:21:58;13.90;92.30
27667;DHT22;15074;50.940;5.282;2023-04-25T15:24:26;14.00;92.70
27667;DHT22;15074;50.940;5.282;2023-04-25T15:26:52;13.80;92.30
27667;DHT22;15074;50.940;5.282;2023-04-25T15:29:18;13.70;93.30
27667;DHT22;15074;50.940;5.282;2023-04-25T15:31:44;13.90;94.30
27667;DHT22;15074;50.940;5.282;2023-04-25T15:34:10;13.80;95.10
27667;DHT22;15074;50.940;5.282;2023-04-25T15:36:36;13.60;93.10
27667;DHT22;15074;50.940;5.282;2023-04-25T15:39:02;13.30;94.00
27667;DHT22;15074;50.940;5.282;2023-04-25T15:41:28;13.50;94.80
27667;DHT22;15074;50.940;5.282;2023-04-25T15:43:54;13.40;94.30
27667;DHT22;15074;50.940;5.282;2023-04-25T15:46:20;13.20;95.20
27667;DHT22;15074;50.940;5.282;2023-04-25T15:48:48;13.00;96.10
27667;DHT22;15074;50.940;5.282;2023-04-25T15:51:14;13.20;94.80
27667;DHT22;15074;50.940;5.282;2023-04-25T15:53:40;13.10;94.80
27667;DHT22;15074;50.940;5.282;2023-04-25T15:56:06;12.90;95.00
27667;DHT22;15074;50.940;5.282;2023-04-25T15:58:31;12.90;94.80
27667;DHT22;15074;50.940;5.282;2023-04-25T16:00:57;13.20;95.40
27667;DHT22;15074;50.940;5.282;2023-04-25T16:03:23;13.30;94.60
27667;DHT22;15074;50.940;5.282;2023-04-25T16:05:49;13.00;95.70
27667;DHT22;15074;50.940;5.282;2023-04-25T16:08:15;12.90;95.60
27667;DHT22;15074;50.940;5.282;2023-04-25T16:10:40;13.20;95.60
27667;DHT22;15074;50.940;5.282;2023-04-25T16:13:06;13.10;95.80
27667;DHT22;15074;50.940;5.282;2023-04-25T16:15:32;13.10;96.00
27667;DHT22;15074;50.940;5.282;2023-04-25T16:17:58;13.30;96.20
27667;DHT22;15074;50.940;5.282;2023-04-25T16:20:23;13.30;96.80
27667;DHT22;15074;50.940;5.282;2023-04-25T16:22:49;13.40;95.90
27667;DHT22;15074;50.940;5.282;2023-04-25T16:25:14;13.30;95.90
27667;DHT22;15074;50.940;5.282;2023-04-25T16:27:40;13.40;94.20
27667;DHT22;15074;50.940;5.282;2023-04-25T16:30:08;13.50;94.60
27667;DHT22;15074;50.940;5.282;2023-04-25T16:32:34;13.40;93.00
27667;DHT22;15074;50.940;5.282;2023-04-25T16:35:00;13.30;92.10
27667;DHT22;15074;50.940;5.282;2023-04-25T16:37:26;13.30;92.20
27667;DHT22;15074;50.940;5.282;2023-04-25T16:39:52;13.20;91.60
27667;DHT22;15074;50.940;5.282;2023-04-25T16:42:18;13.10;91.90
27667;DHT22;15074;50.940;5.282;2023-04-25T16:44:43;13.10;92.10
27667;DHT22;15074;50.940;5.282;2023-04-25T16:47:09;13.10;91.80
27667;DHT22;15074;50.940;5.282;2023-04-25T16:49:35;12.90;92.10
27667;DHT22;15074;50.940;5.282;2023-04-25T16:52:01;12.80;92.90
27667;DHT22;15074;50.940;5.282;2023-04-25T16:54:27;12.70;92.50
27667;DHT22;15074;50.940;5.282;2023-04-25T16:56:52;12.60;92.40
27667;DHT22;15074;50.940;5.282;2023-04-25T16:59:19;12.30;92.50
27667;DHT22;15074;50.940;5.282;2023-04-25T17:01:44;12.00;93.30
27667;DHT22;15074;50.940;5.282;2023-04-25T17:04:10;11.90;94.10
27667;DHT22;15074;50.940;5.282;2023-04-25T17:06:36;11.60;95.30
27667;DHT22;15074;50.940;5.282;2023-04-25T17:09:02;11.70;95.70
27667;DHT22;15074;50.940;5.282;2023-04-25T17:11:28;11.90;95.90
27667;DHT22;15074;50.940;5.282;2023-04-25T17:38:17;11.40;98.00
27667;DHT22;15074;50.940;5.282;2023-04-25T17:40:42;11.30;98.10
27667;DHT22;15074;50.940;5.282;2023-04-25T17:43:08;11.40;98.30
27667;DHT22;15074;50.940;5.282;2023-04-25T17:45:34;11.10;99.20
27667;DHT22;15074;50.940;5.282;2023-04-25T17:48:01;10.90;99.80
27667;DHT22;15074;50.940;5.282;2023-04-25T17:50:28;10.90;99.80
27667;DHT22;15074;50.940;5.282;2023-04-25T18:27:49;10.20;99.90
27667;DHT22;15074;50.940;5.282;2023-04-25T18:41:03;10.20;99.90
27667;DHT22;15074;50.940;5.282;2023-04-25T18:43:28;10.10;99.90
27667;DHT22;15074;50.940;5.282;2023-04-25T18:45:54;10.00;99.90
27667;DHT22;15074;50.940;5.282;2023-04-25T18:48:20;9.90;99.90
27667;DHT22;15074;50.940;5.282;2023-04-25T18:50:46;9.90;99.90
27667;DHT22;15074;50.940;5.282;2023-04-25T18:53:11;9.70;99.90
27667;DHT22;15074;50.940;5.282;2023-04-25T18:55:37;9.60;99.90
27667;DHT22;15074;50.940;5.282;2023-04-25T18:58:05;9.60;99.90
27667;DHT22;15074;50.940;5.282;2023-04-25T19:00:33;9.60;99.90
27667;DHT22;15074;50.940;5.282;2023-04-25T19:02:59;9.60;99.90
27667;DHT22;15074;50.940;5.282;2023-04-25T19:05:31;9.50;99.90
27667;DHT22;15074;50.940;5.282;2023-04-25T19:07:57;9.60;99.90
27667;DHT22;15074;50.940;5.282;2023-04-25T19:10:23;9.60;99.90
27667;DHT22;15074;50.940;5.282;2023-04-25T19:12:49;9.60;99.90
27667;DHT22;15074;50.940;5.282;2023-04-25T19:15:14;9.50;99.90
27667;DHT22;15074;50.940;5.282;2023-04-25T19:17:41;9.40;99.90
27667;DHT22;15074;50.940;5.282;2023-04-25T19:20:07;9.30;99.90
27667;DHT22;15074;50.940;5.282;2023-04-25T19:22:33;9.30;99.90
27667;DHT22;15074;50.940;5.282;2023-04-25T19:24:59;9.20;99.90
27667;DHT22;15074;50.940;5.282;2023-04-25T19:27:25;9.20;99.90
27667;DHT22;15074;50.940;5.282;2023-04-25T19:29:51;9.10;99.90
27667;DHT22;15074;50.940;5.282;2023-04-25T19:32:22;9.00;99.90
27667;DHT22;15074;50.940;5.282;2023-04-25T19:34:48;8.90;99.90
27667;DHT22;15074;50.940;5.282;2023-04-25T19:37:14;8.70;99.90
27667;DHT22;15074;50.940;5.282;2023-04-25T19:39:40;8.70;99.90
27667;DHT22;15074;50.940;5.282;2023-04-25T19:42:05;8.60;99.90
27667;DHT22;15074;50.940;5.282;2023-04-25T19:44:31;8.50;99.90
27667;DHT22;15074;50.940;5.282;2023-04-25T19:46:57;8.40;99.90
27667;DHT22;15074;50.940;5.282;2023-04-25T19:49:24;8.40;99.90
27667;DHT22;15074;50.940;5.282;2023-04-25T19:51:51;8.30;99.90
27667;DHT22;15074;50.940;5.282;2023-04-25T19:54:16;8.30;99.90
27667;DHT22;15074;50.940;5.282;2023-04-25T19:56:42;8.10;99.90
27667;DHT22;15074;50.940;5.282;2023-04-25T19:59:08;8.10;99.90
27667;DHT22;15074;50.940;5.282;2023-04-25T20:01:34;8.00;99.90
27667;DHT22;15074;50.940;5.282;2023-04-25T20:04:00;7.90;99.90
27667;DHT22;15074;50.940;5.282;2023-04-25T20:06:26;7.90;99.90
27667;DHT22;15074;50.940;5.282;2023-04-25T20:08:53;7.90;99.90
27667;DHT22;15074;50.940;5.282;2023-04-25T20:11:19;7.90;99.90
27667;DHT22;15074;50.940;5.282;2023-04-25T20:13:46;7.90;99.90
27667;DHT22;15074;50.940;5.282;2023-04-25T20:16:11;7.80;99.90
27667;DHT22;15074;50.940;5.282;2023-04-25T20:18:38;7.90;99.90
27667;DHT22;15074;50.940;5.282;2023-04-25T20:21:04;7.80;99.90
27667;DHT22;15074;50.940;5.282;2023-04-25T20:23:30;7.70;99.90
27667;DHT22;15074;50.940;5.282;2023-04-25T20:25:55;7.70;99.90
27667;DHT22;15074;50.940;5.282;2023-04-25T20:28:21;7.60;99.90